Portada
METAR-TAF:

METAR-TAF

Aeropuertos :

Aeropuerto de Granada

Granada, España

latitud: 37-11N, longitud: 003-47W, altitud: 567 m

Observación

El informe se hizo hace 31 minutos, a las 03:00 UTC
Viento calma
Temperatura -2°C
Humedad 93%
Presión 1026 hPa
Visibilidad 10 km o más

METAR: LEGR 180300Z AUTO 00000KT 9999 ////// M02/M03 Q1026

Hora: 04:31 (03:31 UTC)

Pronóstico

El informe se hizo hace 1 hora y 31 minutos, a las 02:00 UTC
Pronóstico válido del 18 a las 03 UTC al 19 a las 03 UTC
Viento 2 kt con dirección variable
Visibilidad 10 km o más
sin nubes por debajo de 1500 m y sin presencia de cumulonimbus.

TAF: LEGR 180200Z 1803/1903 VRB02KT CAVOK TX17/1815Z TNM03/1807Z

Observaciones y pronósticos meteorológicos de más de 4000 aeropuertos (mensajes METAR y TAF).

Los puntos amarillos y rojos representan las estaciones disponibles.

Ponga el ratón en el punto deseado para ver el nombre de la estación.

Haga clic para ver las observaciones y los pronósticos meteorológicos.

Para cambiar el mapa : haga clic en los botones verdes con una cruz de color negro para hacer un zoom, en el botón verde con un guión para alejar o en las flechas verdes para mapas adyacentes.


METAR-TAF: